Time;durP1;ratioP1;P1;durP2;ratioP2;P2;SDS_P1;SDS_P2;PMS_P1;PMS_P2;Temp;Humidity;BMP_temperature;BMP_pressure;BME280_temperature;BME280_humidity;BME280_pressure;Samples;Min_cycle;Max_cycle;Signal;HPM_P1;HPM_P2
2021/06/04 04:17:05;;;;;;;10.48;5.20;;;;;;;14.79;91.33;99226.03;5194032;23;20505;-77
2021/06/04 04:19:31;;;;;;;8.63;4.78;;;;;;;15.01;90.07;99227.16;4935467;29;20031;-77
2021/06/04 04:21:57;;;;;;;9.07;6.00;;;;;;;15.05;89.67;99226.16;4935728;29;20034;-77
2021/06/04 04:24:29;;;;;;;5.65;5.13;;;;;;;15.12;89.55;99230.31;4935535;29;20059;-77
2021/06/04 04:26:56;;;;;;;4.93;4.43;;;;;;;15.26;88.35;99229.03;4935166;29;20023;-77
2021/06/04 04:29:22;;;;;;;7.18;4.93;;;;;;;15.32;88.02;99236.69;4935813;29;20378;-76
2021/06/04 04:31:54;;;;;;;8.30;5.20;;;;;;;15.50;86.76;99236.13;4935286;29;20024;-77
2021/06/04 04:34:20;;;;;;;5.20;4.63;;;;;;;15.60;86.65;99232.34;4935229;29;20034;-77
2021/06/04 04:36:49;;;;;;;7.80;4.63;;;;;;;15.55;86.75;99244.69;4935233;29;20486;-76
2021/06/04 04:39:23;;;;;;;5.45;4.30;;;;;;;15.66;86.41;99237.44;4934136;29;20023;-76
2021/06/04 04:41:49;;;;;;;5.10;4.25;;;;;;;15.76;86.31;99239.72;4935206;29;20036;-76
2021/06/04 04:44:18;;;;;;;5.00;4.50;;;;;;;15.85;85.51;99236.81;4935247;29;20110;-77
2021/06/04 04:46:43;;;;;;;8.60;4.95;;;;;;;15.68;86.56;99235.59;4934767;29;20469;-76
2021/06/04 04:49:09;;;;;;;4.82;4.30;;;;;;;15.94;85.49;99239.13;4935356;29;20055;-76
2021/06/04 04:51:35;;;;;;;4.88;4.22;;;;;;;16.04;85.27;99243.16;4935161;29;20044;-76
2021/06/04 04:54:01;;;;;;;6.75;4.60;;;;;;;16.00;84.91;99244.16;4935054;29;20473;-77
2021/06/04 04:56:26;;;;;;;5.35;4.38;;;;;;;16.49;83.14;99239.94;4934721;29;20023;-76
2021/06/04 04:58:52;;;;;;;7.53;4.32;;;;;;;16.70;81.95;99239.16;4934999;29;20500;-77
2021/06/04 05:01:19;;;;;;;5.70;4.47;;;;;;;16.57;82.13;99235.25;4934925;29;20070;-77
2021/06/04 05:03:46;;;;;;;6.40;4.03;;;;;;;16.85;81.38;99235.19;4934931;29;20032;-77
2021/06/04 05:06:11;;;;;;;5.32;4.35;;;;;;;17.17;79.86;99233.16;4934665;29;20035;-76
2021/06/04 05:08:37;;;;;;;6.65;4.75;;;;;;;17.00;80.73;99241.63;4934827;29;20036;-73
2021/06/04 05:11:03;;;;;;;7.03;4.32;;;;;;;17.01;81.16;99242.47;4935056;29;20031;-73
2021/06/04 05:13:29;;;;;;;5.63;4.65;;;;;;;16.89;81.28;99244.63;4934777;29;20056;-73
2021/06/04 05:15:55;;;;;;;7.47;4.63;;;;;;;17.07;80.57;99248.34;4934574;29;20063;-73
2021/06/04 05:18:20;;;;;;;5.28;4.20;;;;;;;17.59;78.98;99256.84;4934600;29;20034;-73
2021/06/04 05:20:47;;;;;;;6.30;4.07;;;;;;;18.21;75.68;99250.88;4934983;29;20036;-73
2021/06/04 05:23:15;;;;;;;5.68;4.10;;;;;;;18.65;74.63;99260.41;4934657;29;20031;-73
2021/06/04 05:25:44;;;;;;;5.70;4.45;;;;;;;18.75;74.00;99256.50;4933576;29;20035;-73
2021/06/04 05:28:13;;;;;;;4.43;3.72;;;;;;;19.04;73.22;99263.06;4934423;29;20028;-73
2021/06/04 05:30:41;;;;;;;3.73;3.37;;;;;;;19.27;72.07;99270.78;4935808;29;20050;-73
2021/06/04 05:33:09;;;;;;;4.43;3.58;;;;;;;19.17;72.89;99264.25;4938536;29;20268;-73
2021/06/04 05:35:35;;;;;;;6.28;3.45;;;;;;;19.60;70.93;99272.81;4938473;29;20032;-73
2021/06/04 05:38:00;;;;;;;4.93;3.75;;;;;;;19.70;70.51;99271.44;4938313;29;20026;-73
2021/06/04 05:40:32;;;;;;;5.60;3.97;;;;;;;19.45;71.37;99273.50;4938409;29;20474;-73
2021/06/04 05:42:58;;;;;;;12.82;4.35;;;;;;;19.94;69.96;99271.22;4938321;29;20517;-73
2021/06/04 05:45:26;;;;;;;6.63;3.72;;;;;;;20.00;69.45;99277.00;4938209;29;20074;-73
2021/06/04 05:47:53;;;;;;;3.72;3.40;;;;;;;19.77;70.30;99265.00;4938073;29;20020;-74
2021/06/04 05:50:24;;;;;;;4.30;3.60;;;;;;;19.82;70.41;99263.91;4938342;29;20481;-74
2021/06/04 05:52:50;;;;;;;6.82;3.42;;;;;;;20.10;69.99;99264.25;4938159;29;20031;-74
2021/06/04 05:55:22;;;;;;;8.60;3.55;;;;;;;20.25;69.65;99266.13;4938126;29;20086;-74
2021/06/04 05:57:47;;;;;;;5.38;3.58;;;;;;;20.52;69.05;99258.66;4937915;29;20019;-76
2021/06/04 06:00:20;;;;;;;4.85;3.70;;;;;;;20.24;70.18;99264.44;4938146;29;20063;-75
2021/06/04 06:02:46;;;;;;;6.82;3.35;;;;;;;20.12;70.79;99269.47;4938145;29;20126;-74
2021/06/04 06:05:11;;;;;;;6.07;3.90;;;;;;;20.34;70.41;99275.34;4938029;29;20110;-74
2021/06/04 06:07:37;;;;;;;7.28;3.80;;;;;;;20.90;68.62;99273.44;4937707;29;20031;-74
2021/06/04 06:10:04;;;;;;;9.00;3.05;;;;;;;21.27;67.51;99267.03;4937973;29;20087;-75
2021/06/04 06:12:30;;;;;;;6.35;4.28;;;;;;;21.03;67.38;99269.19;4937753;29;20032;-74
2021/06/04 06:14:55;;;;;;;7.57;4.00;;;;;;;20.61;69.11;99278.41;4937842;29;20038;-74
2021/06/04 06:17:20;;;;;;;5.30;4.18;;;;;;;20.38;70.65;99276.06;4937461;29;20118;-74
2021/06/04 06:19:46;;;;;;;7.40;3.78;;;;;;;20.22;71.29;99281.25;4937811;29;20042;-75
2021/06/04 06:22:12;;;;;;;8.10;3.50;;;;;;;20.10;72.01;99272.16;4937838;29;20078;-75
2021/06/04 06:24:37;;;;;;;14.10;3.90;;;;;;;20.31;71.38;99282.53;4937483;29;20519;-76
2021/06/04 06:27:03;;;;;;;11.10;4.00;;;;;;;20.68;69.88;99279.78;4937368;29;20035;-76
2021/06/04 06:29:30;;;;;;;13.27;3.90;;;;;;;20.84;69.31;99279.00;4937564;29;20032;-77
2021/06/04 06:31:56;;;;;;;6.10;4.07;;;;;;;21.12;68.41;99274.00;4937742;29;20028;-76
2021/06/04 06:34:22;;;;;;;5.18;3.63;;;;;;;21.57;67.01;99277.75;4937448;29;20028;-76
2021/06/04 06:36:47;;;;;;;9.50;3.17;;;;;;;21.93;66.32;99271.34;4937246;29;20031;-76
2021/06/04 06:39:24;;;;;;;5.20;3.40;;;;;;;22.52;63.60;99269.72;4937332;29;20038;-77
2021/06/04 06:41:49;;;;;;;6.20;3.88;;;;;;;23.00;62.14;99273.03;4936394;29;20465;-77
2021/06/04 06:44:15;;;;;;;8.15;3.83;;;;;;;22.52;63.13;99275.84;4937110;29;20082;-77
2021/06/04 06:46:42;;;;;;;5.43;4.07;;;;;;;22.83;62.95;99280.16;4936989;29;20055;-77
2021/06/04 06:49:07;;;;;;;3.90;3.40;;;;;;;23.53;60.68;99274.13;4937224;29;20032;-77
2021/06/04 06:51:35;;;;;;;5.22;3.22;;;;;;;23.86;60.17;99273.81;4937204;29;20058;-78
2021/06/04 06:54:02;;;;;;;8.25;3.75;;;;;;;24.64;58.08;99278.41;4937083;29;20461;-77
2021/06/04 06:56:27;;;;;;;5.93;3.60;;;;;;;26.33;52.12;99270.78;4936849;29;20063;-76
2021/06/04 06:58:53;;;;;;;3.35;2.50;;;;;;;28.87;46.06;99264.59;4937033;29;20107;-79
2021/06/04 07:01:20;;;;;;;5.22;2.90;;;;;;;29.61;44.16;99260.88;4937011;29;20028;-79
2021/06/04 07:03:46;;;;;;;5.25;2.70;;;;;;;29.47;44.44;99266.56;4935641;29;20035;-79
2021/06/04 07:06:18;;;;;;;3.10;2.60;;;;;;;29.11;44.27;99266.16;4936583;29;20064;-78
2021/06/04 07:08:44;;;;;;;5.93;3.17;;;;;;;28.59;45.47;99270.59;4936813;29;20032;-76
2021/06/04 07:11:10;;;;;;;9.35;2.40;;;;;;;28.78;45.37;99270.72;4936816;29;20074;-72
2021/06/04 07:13:36;;;;;;;3.20;2.60;;;;;;;29.94;42.46;99265.88;4936726;29;20116;-73
2021/06/04 07:16:08;;;;;;;6.00;2.42;;;;;;;29.86;42.73;99271.03;4936512;29;20035;-74
2021/06/04 07:18:35;;;;;;;6.13;2.40;;;;;;;29.73;42.67;99266.94;4936561;29;20082;-73
2021/06/04 07:21:00;;;;;;;6.60;2.63;;;;;;;32.31;38.19;99271.91;4936586;29;20035;-74
2021/06/04 07:23:28;;;;;;;4.00;2.30;;;;;;;32.25;37.44;99272.50;4936563;29;20034;-74
2021/06/04 07:25:54;;;;;;;4.75;2.38;;;;;;;33.49;36.12;99263.31;4936486;29;20027;-73
2021/06/04 07:28:27;;;;;;;3.90;2.03;;;;;;;33.89;34.25;99275.19;4936170;29;20042;-74
2021/06/04 07:30:55;;;;;;;2.83;2.10;;;;;;;33.33;34.44;99273.97;4936533;29;20378;-74
2021/06/04 07:33:24;;;;;;;2.40;2.20;;;;;;;33.05;34.78;99280.53;4936333;29;20027;-74
2021/06/04 07:35:52;;;;;;;4.55;2.20;;;;;;;33.77;33.89;99281.91;4936257;29;20031;-74
2021/06/04 07:38:18;;;;;;;4.20;2.08;;;;;;;33.90;33.56;99276.91;4936209;29;20031;-74
2021/06/04 07:40:44;;;;;;;4.28;2.08;;;;;;;32.98;34.71;99289.25;4936250;29;20039;-74
2021/06/04 07:43:14;;;;;;;4.43;2.50;;;;;;;32.84;35.56;99286.25;4936102;29;20111;-74
2021/06/04 07:45:42;;;;;;;9.43;2.75;;;;;;;32.16;36.98;99284.16;4935884;29;20107;-74
2021/06/04 07:48:12;;;;;;;8.25;2.40;;;;;;;31.51;37.94;99283.41;4935841;29;20059;-74
2021/06/04 07:50:40;;;;;;;7.18;2.67;;;;;;;31.23;38.12;99288.69;4935802;29;20486;-74
2021/06/04 07:53:06;;;;;;;13.63;10.90;;;;;;;30.44;39.88;99287.16;4935791;29;20189;-74
2021/06/04 07:55:32;;;;;;;6.18;2.67;;;;;;;30.38;40.49;99285.06;4935943;29;20115;-74
2021/06/04 07:57:57;;;;;;;5.22;2.47;;;;;;;30.02;40.96;99283.03;4935684;29;20034;-74
2021/06/04 08:00:27;;;;;;;4.10;2.83;;;;;;;29.35;42.18;99280.03;4935744;29;20477;-74
2021/06/04 08:02:54;;;;;;;5.10;2.25;;;;;;;29.08;42.81;99283.25;4926382;28;20051;-74
2021/06/04 08:05:20;;;;;;;4.13;3.03;;;;;;;28.28;44.56;99283.78;4935745;29;20181;-73
2021/06/04 08:07:45;;;;;;;4.80;2.42;;;;;;;27.82;45.62;99278.72;4935485;29;20469;-73
2021/06/04 08:10:12;;;;;;;5.00;2.60;;;;;;;28.54;44.36;99284.31;4935690;29;20071;-74
2021/06/04 08:12:38;;;;;;;5.70;2.75;;;;;;;29.85;41.29;99274.72;4935648;29;20114;-74
2021/06/04 08:15:34;;;;;;;7.15;2.33;;;;;;;30.36;39.22;99276.31;4935534;29;20115;-73
2021/06/04 08:18:00;;;;;;;5.70;3.00;;;;;;;31.55;37.15;99279.44;4933505;29;20104;-73
2021/06/04 08:20:29;;;;;;;2.85;2.22;;;;;;;30.65;38.80;99278.13;4935464;29;20020;-73
2021/06/04 08:22:59;;;;;;;3.60;2.42;;;;;;;30.25;40.12;99273.78;4935526;29;20031;-73
2021/06/04 08:25:28;;;;;;;3.58;2.55;;;;;;;30.33;39.62;99271.25;4935388;29;20036;-73
2021/06/04 08:27:54;;;;;;;3.22;1.90;;;;;;;29.72;40.47;99276.78;4935070;29;20023;-74
2021/06/04 08:30:20;;;;;;;3.90;2.63;;;;;;;30.63;39.33;99277.41;4935390;29;20034;-74
2021/06/04 08:32:46;;;;;;;11.82;9.40;;;;;;;30.89;39.03;99278.50;4935244;29;20065;-74
2021/06/04 08:35:13;;;;;;;3.05;2.45;;;;;;;30.38;39.35;99285.06;4935236;29;20103;-73
2021/06/04 08:37:40;;;;;;;3.22;2.30;;;;;;;31.58;37.43;99273.78;4935033;29;20027;-73
2021/06/04 08:40:11;;;;;;;4.90;2.72;;;;;;;31.17;37.32;99281.25;4935182;29;20043;-73
2021/06/04 08:42:53;;;;;;;4.82;2.42;;;;;;;32.13;35.91;99279.09;4927578;29;20548;-73
2021/06/04 08:45:37;;;;;;;2.00;1.80;;;;;;;32.66;34.46;99286.28;4931081;29;20031;-72
2021/06/04 08:48:41;;;;;;;3.85;2.22;;;;;;;33.97;32.82;99283.31;4934537;29;20034;-73
2021/06/04 08:51:35;;;;;;;4.47;2.20;;;;;;;33.43;33.90;99280.09;4934988;29;20484;-73
2021/06/04 08:54:36;;;;;;;8.07;2.50;;;;;;;34.25;31.88;99283.03;4934536;29;20484;-73
2021/06/04 08:57:25;;;;;;;4.70;2.13;;;;;;;33.80;33.55;99283.41;4934402;29;20024;-74
2021/06/04 08:59:55;;;;;;;3.03;1.85;;;;;;;33.77;32.73;99281.91;4934524;29;20063;-79
2021/06/04 09:02:43;;;;;;;4.80;2.10;;;;;;;35.22;30.19;99284.00;4927739;29;20043;-79
2021/06/04 09:05:15;;;;;;;;;;;;;;;33.52;31.71;99282.81;4933631;29;20095;-79
2021/06/04 09:07:47;;;;;;;2.60;1.73;;;;;;;33.18;32.76;99286.34;4934457;29;20376;-78
2021/06/04 09:10:33;;;;;;;5.55;1.83;;;;;;;33.97;31.08;99271.72;4934439;29;20119;-79
2021/06/04 09:13:01;;;;;;;2.75;2.17;;;;;;;33.53;31.84;99284.50;4934465;29;20032;-79
2021/06/04 09:15:31;;;;;;;6.30;1.77;;;;;;;34.60;29.74;99278.34;4934274;29;20433;-79
2021/06/04 09:18:17;;;;;;;3.78;1.95;;;;;;;35.29;29.29;99274.19;4934484;29;20832;-79
2021/06/04 09:21:04;;;;;;;3.42;1.75;;;;;;;35.25;28.78;99273.72;4934584;29;20384;-79
2021/06/04 09:23:33;;;;;;;3.67;1.73;;;;;;;33.40;32.05;99269.63;4921341;29;20055;-79
2021/06/04 09:25:58;;;;;;;5.18;1.65;;;;;;;35.82;28.28;99261.84;4934253;29;20039;-79
2021/06/04 09:28:55;;;;;;;2.78;1.52;;;;;;;35.14;28.35;99262.47;4934280;29;20032;-79
2021/06/04 09:31:23;;;;;;;3.88;1.77;;;;;;;36.03;26.80;99251.28;4918344;29;20048;-77
2021/06/04 09:33:55;;;;;;;3.80;1.98;;;;;;;35.81;26.88;99259.31;4934291;29;20513;-77
2021/06/04 09:36:25;;;;;;;3.03;1.80;;;;;;;36.33;27.36;99255.97;4934011;29;20031;-77
2021/06/04 09:39:13;;;;;;;3.95;1.73;;;;;;;36.54;26.72;99248.03;4931932;29;20031;-77
2021/06/04 09:41:42;;;;;;;6.47;1.73;;;;;;;36.86;25.80;99243.34;4934211;29;20099;-77
2021/06/04 09:44:17;;;;;;;3.72;1.48;;;;;;;38.28;24.28;99231.16;4934141;29;20027;-77
2021/06/04 09:47:20;;;;;;;3.40;1.52;;;;;;;37.80;24.17;99229.00;4933855;29;20051;-77
2021/06/04 09:49:51;;;;;;;3.53;1.38;;;;;;;35.39;26.77;99226.31;4921564;29;20400;-77
2021/06/04 09:52:19;;;;;;;2.75;1.40;;;;;;;36.28;26.74;99229.50;4932902;29;20028;-77
2021/06/04 09:54:45;;;;;;;3.75;1.70;;;;;;;32.64;31.00;99218.53;4934156;29;20028;-77
2021/06/04 09:57:18;;;;;;;3.40;1.40;;;;;;;35.44;27.21;99221.25;4918341;29;20024;-77
2021/06/04 09:59:44;;;;;;;3.63;1.65;;;;;;;35.83;27.24;99214.13;4934441;29;20159;-77
2021/06/04 10:02:31;;;;;;;3.00;1.67;;;;;;;34.67;29.04;99215.59;4934147;29;20082;-77
2021/06/04 10:05:31;;;;;;;5.57;2.28;;;;;;;36.33;26.90;99212.78;4933929;29;20032;-75
2021/06/04 10:08:12;;;;;;;3.17;1.80;;;;;;;30.77;34.21;99226.16;4942059;29;20044;-76
2021/06/04 10:10:37;;;;;;;4.45;1.73;;;;;;;34.93;28.52;99218.03;4934185;29;20071;-75
2021/06/04 10:13:10;;;;;;;5.25;1.60;;;;;;;34.85;28.70;99223.44;4933908;29;20249;-75
2021/06/04 10:15:43;;;;;;;4.85;1.58;;;;;;;34.20;31.00;99223.50;4933848;29;20028;-75
2021/06/04 10:18:30;;;;;;;4.68;1.65;;;;;;;37.14;26.18;99222.78;4937066;29;20059;-75
2021/06/04 10:21:12;;;;;;;6.07;1.57;;;;;;;36.70;26.15;99230.81;4937582;29;20062;-77
2021/06/04 10:23:41;;;;;;;4.65;1.60;;;;;;;37.70;25.33;99216.81;4937372;29;20095;-77
2021/06/04 10:26:24;;;;;;;1.95;1.58;;;;;;;34.61;28.63;99223.50;4937036;29;20027;-77
2021/06/04 10:29:10;;;;;;;5.85;1.80;;;;;;;34.10;30.36;99223.66;4976298;23;20075;-79
2021/06/04 10:31:53;;;;;;;5.05;1.98;;;;;;;32.07;33.51;99226.94;4936146;29;20507;-76
2021/06/04 10:34:25;;;;;;;5.13;1.70;;;;;;;31.16;35.49;99209.97;4936155;29;20023;-76
2021/06/04 10:36:56;;;;;;;4.88;1.77;;;;;;;28.48;40.72;99220.84;4935740;29;20016;-76
2021/06/04 10:39:35;;;;;;;6.82;4.03;;;;;;;28.37;40.60;99219.06;4936150;29;20031;-75
2021/06/04 10:42:30;;;;;;;3.13;1.88;;;;;;;29.00;39.85;99211.03;4937027;29;20374;-76
2021/06/04 10:45:14;;;;;;;8.68;2.15;;;;;;;27.84;41.42;99226.16;4936736;29;20032;-76
2021/06/04 10:47:45;;;;;;;4.38;2.20;;;;;;;28.58;40.28;99218.25;4936417;29;20075;-76
2021/06/04 10:50:45;;;;;;;4.10;1.90;;;;;;;28.92;40.47;99209.00;4936605;29;20394;-76
2021/06/04 10:53:19;;;;;;;9.60;1.80;;;;;;;29.45;40.22;99206.13;4939312;29;20500;-76
2021/06/04 10:55:51;;;;;;;10.77;2.28;;;;;;;28.68;41.05;99209.31;4936639;29;20050;-76
2021/06/04 10:58:27;;;;;;;3.67;2.10;;;;;;;27.29;44.22;99210.16;4936835;29;20389;-76
2021/06/04 11:01:00;;;;;;;5.55;2.30;;;;;;;29.48;39.57;99199.66;4935732;29;20082;-76
2021/06/04 11:03:40;;;;;;;3.53;2.30;;;;;;;30.42;38.31;99200.88;4937008;29;20050;-76
2021/06/04 11:06:17;;;;;;;3.67;2.03;;;;;;;28.97;40.83;99205.97;4936725;29;20038;-77
2021/06/04 11:09:00;;;;;;;4.88;2.10;;;;;;;28.56;42.13;99212.16;4936700;29;20496;-77
2021/06/04 11:11:45;;;;;;;3.13;1.90;;;;;;;27.99;43.90;99202.75;4936763;29;20027;-77
2021/06/04 11:14:35;;;;;;;4.25;2.13;;;;;;;26.78;46.57;99199.13;4936648;29;20366;-76
2021/06/04 11:17:32;;;;;;;5.50;2.50;;;;;;;26.50;47.18;99205.78;4936893;29;20504;-76
2021/06/04 11:20:07;;;;;;;7.00;2.53;;;;;;;26.30;48.46;99200.13;4935537;29;20055;-76
2021/06/04 11:22:55;;;;;;;5.63;2.53;;;;;;;25.88;50.35;99205.03;4936471;29;20103;-76
2021/06/04 11:25:39;;;;;;;2.22;1.95;;;;;;;26.26;48.13;99196.00;4935326;29;20451;-76
2021/06/04 11:28:17;;;;;;;4.20;2.17;;;;;;;25.83;48.44;99196.56;4935620;29;20038;-76
2021/06/04 11:30:44;;;;;;;5.85;2.63;;;;;;;25.24;49.74;99208.84;4936527;29;20332;-76
2021/06/04 11:33:20;;;;;;;8.07;2.42;;;;;;;24.40;52.11;99201.44;4934934;29;20035;-76
2021/06/04 11:35:50;;;;;;;4.07;1.85;;;;;;;23.70;54.89;99207.81;4936467;29;20072;-76
2021/06/04 11:38:49;;;;;;;9.18;2.08;;;;;;;23.38;55.39;99211.63;4936080;29;20380;-75
2021/06/04 11:41:33;;;;;;;5.57;1.88;;;;;;;23.24;55.02;99216.00;4936108;29;20023;-76
2021/06/04 11:44:04;;;;;;;5.47;2.17;;;;;;;23.14;55.10;99230.75;4935145;29;20458;-75
2021/06/04 11:46:33;;;;;;;5.88;2.30;;;;;;;22.96;63.00;99242.44;4935915;29;20059;-75
2021/06/04 11:49:07;;;;;;;6.35;2.80;;;;;;;22.31;67.93;99251.56;4936039;29;20032;-76
2021/06/04 11:52:08;;;;;;;8.93;2.78;;;;;;;21.36;66.68;99273.66;4934711;29;20507;-75
2021/06/04 11:54:40;;;;;;;7.15;2.88;;;;;;;20.48;70.60;99287.88;4935846;29;20449;-75
2021/06/04 11:57:13;;;;;;;7.45;2.95;;;;;;;19.94;71.34;99279.09;4935738;29;20452;-75
2021/06/04 11:59:41;;;;;;;10.68;3.20;;;;;;;19.53;74.55;99276.59;4935911;29;20504;-75
2021/06/04 12:02:07;;;;;;;6.07;2.88;;;;;;;19.41;79.07;99277.19;4935786;29;20054;-75
2021/06/04 12:04:32;;;;;;;9.18;3.83;;;;;;;18.99;82.64;99275.56;4935851;29;20028;-76
2021/06/04 12:07:01;;;;;;;8.27;3.63;;;;;;;18.69;86.55;99276.00;4935337;29;20035;-75
2021/06/04 12:09:33;;;;;;;7.30;2.97;;;;;;;18.59;83.77;99269.41;4935749;29;20039;-75
2021/06/04 12:12:16;;;;;;;7.03;2.95;;;;;;;18.45;86.30;99267.34;4934372;29;20054;-76
2021/06/04 12:14:54;;;;;;;6.03;2.97;;;;;;;18.21;88.97;99265.75;4935699;29;20028;-75
2021/06/04 12:17:24;;;;;;;9.70;3.35;;;;;;;18.14;91.04;99259.91;4934934;29;20269;-75
2021/06/04 12:20:22;;;;;;;7.10;3.45;;;;;;;18.11;90.24;99264.44;4932469;29;20289;-75
2021/06/04 12:23:09;;;;;;;6.38;3.70;;;;;;;18.09;91.75;99261.88;4933553;29;20211;-75
2021/06/04 12:25:42;;;;;;;9.05;3.88;;;;;;;18.11;90.71;99265.28;4932421;29;20111;-75
2021/06/04 12:28:28;;;;;;;4.47;2.58;;;;;;;18.07;87.85;99268.94;4933262;29;20153;-76
2021/06/04 12:31:30;;;;;;;7.95;3.47;;;;;;;18.03;89.84;99272.59;4936287;29;20040;-76
2021/06/04 12:33:58;;;;;;;6.68;3.05;;;;;;;18.02;90.21;99270.91;4934484;29;20039;-76
2021/06/04 12:36:29;;;;;;;8.85;4.20;;;;;;;18.02;90.91;99270.91;4935081;29;20085;-76
2021/06/04 12:39:20;;;;;;;5.90;3.20;;;;;;;18.11;89.97;99273.16;4935118;29;20024;-76
2021/06/04 12:42:00;;;;;;;6.80;3.38;;;;;;;18.14;93.07;99274.81;4933297;29;20074;-76
2021/06/04 12:44:26;;;;;;;13.55;3.90;;;;;;;18.11;92.81;99275.78;4935060;29;20046;-76
2021/06/04 12:46:51;;;;;;;13.15;3.42;;;;;;;18.05;91.28;99273.41;4934954;29;20031;-76
2021/06/04 12:49:19;;;;;;;7.47;4.10;;;;;;;18.08;92.27;99265.41;4935020;29;20417;-76
2021/06/04 12:51:46;;;;;;;5.47;2.90;;;;;;;17.92;89.66;99254.69;4935063;29;20107;-76
2021/06/04 12:54:19;;;;;;;8.52;3.53;;;;;;;17.87;90.98;99255.78;4933617;29;20032;-76
2021/06/04 12:56:48;;;;;;;8.35;3.10;;;;;;;17.96;90.37;99252.78;4934940;29;20031;-76
2021/06/04 12:59:17;;;;;;;5.73;3.57;;;;;;;17.95;89.62;99254.56;4934856;29;20027;-76
2021/06/04 13:01:53;;;;;;;19.35;3.50;;;;;;;18.14;90.20;99254.69;4934882;29;20263;-76
2021/06/04 13:04:24;;;;;;;12.90;3.15;;;;;;;18.38;89.82;99244.94;4934772;29;20034;-76
2021/06/04 13:06:52;;;;;;;9.95;3.35;;;;;;;18.56;90.99;99243.28;4933299;29;20489;-76
2021/06/04 13:09:37;;;;;;;5.57;3.67;;;;;;;18.70;88.94;99230.44;4934580;29;20027;-76
2021/06/04 13:12:24;;;;;;;10.10;3.45;;;;;;;18.73;88.63;99226.84;4934777;29;20023;-76
2021/06/04 13:14:51;;;;;;;8.32;3.20;;;;;;;18.91;89.83;99226.03;4934451;29;20043;-76
2021/06/04 13:17:26;;;;;;;3.25;2.35;;;;;;;18.91;87.49;99227.81;4934392;29;20397;-76
2021/06/04 13:20:07;;;;;;;3.10;2.15;;;;;;;18.88;85.40;99225.31;4934374;29;20027;-76
2021/06/04 13:22:33;;;;;;;9.57;2.20;;;;;;;18.79;86.10;99220.47;4934572;29;20027;-76
2021/06/04 13:25:09;;;;;;;9.07;2.72;;;;;;;18.88;85.57;99222.69;4934621;29;20214;-76
2021/06/04 13:27:35;;;;;;;5.20;2.53;;;;;;;18.91;86.45;99220.78;4934360;29;20031;-76
2021/06/04 13:30:07;;;;;;;12.15;2.72;;;;;;;19.05;84.46;99212.28;4933062;29;20504;-76
2021/06/04 13:32:55;;;;;;;7.18;2.40;;;;;;;19.19;86.61;99204.59;4934546;29;20028;-76
2021/06/04 13:35:32;;;;;;;7.25;2.83;;;;;;;19.76;84.37;99205.41;4934519;29;20609;-76
2021/06/04 13:38:02;;;;;;;9.82;3.00;;;;;;;19.78;83.49;99208.00;4934194;29;20066;-76
2021/06/04 13:40:33;;;;;;;5.10;2.80;;;;;;;20.19;81.02;99219.06;4934294;29;20120;-76
2021/06/04 13:43:08;;;;;;;7.00;2.78;;;;;;;20.50;80.30;99217.53;4934400;29;20034;-76
2021/06/04 13:45:44;;;;;;;7.75;2.50;;;;;;;20.69;80.19;99213.03;4934380;29;20027;-76
2021/06/04 13:48:26;;;;;;;9.10;2.53;;;;;;;20.33;79.17;99220.16;4933973;29;20063;-76
2021/06/04 13:51:02;;;;;;;5.93;1.92;;;;;;;20.24;79.77;99222.31;4934403;29;20107;-74
2021/06/04 13:53:32;;;;;;;6.00;3.03;;;;;;;20.41;79.13;99223.28;4938063;29;20023;-75
2021/06/04 13:56:17;;;;;;;3.60;2.35;;;;;;;20.77;77.57;99217.91;4938053;29;20028;-74
2021/06/04 13:58:43;;;;;;;9.95;2.30;;;;;;;20.74;76.97;99208.41;4936621;29;20051;-74
2021/06/04 14:01:14;;;;;;;4.35;2.45;;;;;;;21.33;77.67;99213.19;4938023;29;20027;-76
2021/06/04 14:03:43;;;;;;;4.88;2.13;;;;;;;21.90;74.85;99213.47;4937801;29;20027;-76
2021/06/04 14:06:28;;;;;;;2.95;1.90;;;;;;;21.37;73.41;99212.06;4937869;29;20042;-77
2021/06/04 14:08:54;;;;;;;6.47;2.22;;;;;;;21.57;73.01;99209.19;4937788;29;20501;-75
2021/06/04 14:11:20;;;;;;;4.10;2.15;;;;;;;21.86;72.37;99196.16;4937764;29;20548;-75
2021/06/04 14:13:45;;;;;;;6.22;2.10;;;;;;;21.35;72.22;99195.50;4937922;29;20023;-75
2021/06/04 14:16:12;;;;;;;6.15;2.22;;;;;;;22.00;72.15;99188.25;4937646;29;20036;-75
2021/06/04 14:18:37;;;;;;;5.70;1.88;;;;;;;21.57;72.36;99190.72;4937607;29;20397;-75
2021/06/04 14:21:43;;;;;;;5.20;2.23;;;;;;;21.68;72.68;99183.06;4937628;29;20028;-75
2021/06/04 14:24:08;;;;;;;8.35;2.60;;;;;;;21.97;71.17;99168.19;4937592;29;20271;-74
2021/06/04 14:26:57;;;;;;;3.45;2.00;;;;;;;22.26;71.34;99158.56;4937328;29;20023;-75
2021/06/04 14:29:44;;;;;;;4.70;2.40;;;;;;;21.83;71.79;99156.72;4937276;29;20031;-77
2021/06/04 14:32:10;;;;;;;3.72;2.22;;;;;;;21.59;73.65;99157.19;4937411;29;20047;-77
2021/06/04 14:34:43;;;;;;;5.05;2.97;;;;;;;21.96;71.44;99149.81;4937251;29;20058;-77
2021/06/04 14:37:15;;;;;;;3.85;2.10;;;;;;;21.64;71.60;99144.59;4937240;29;20034;-77
2021/06/04 14:39:48;;;;;;;4.68;1.90;;;;;;;21.78;71.69;99142.03;4937236;29;20110;-77
2021/06/04 14:42:20;;;;;;;5.53;1.98;;;;;;;21.95;72.20;99137.53;4937302;29;20030;-75
2021/06/04 14:44:46;;;;;;;6.28;2.63;;;;;;;22.22;70.51;99130.66;4937050;29;20035;-75
2021/06/04 14:47:34;;;;;;;2.78;1.77;;;;;;;22.11;71.84;99127.81;4935710;29;20105;-75
2021/06/04 14:49:59;;;;;;;4.20;1.83;;;;;;;22.24;71.47;99123.50;4936998;29;20547;-75
2021/06/04 14:52:25;;;;;;;5.35;2.30;;;;;;;22.21;71.94;99121.03;4935832;29;20110;-75
2021/06/04 14:54:52;;;;;;;6.47;2.35;;;;;;;21.85;73.31;99120.53;4936952;29;20500;-75
2021/06/04 14:57:18;;;;;;;5.30;2.40;;;;;;;21.95;73.06;99113.78;4936709;29;20028;-75
2021/06/04 14:59:43;;;;;;;7.57;2.17;;;;;;;21.83;73.30;99106.59;4936838;29;20031;-77
2021/06/04 15:02:15;;;;;;;3.70;2.40;;;;;;;21.85;73.88;99110.00;4936833;29;20031;-77
2021/06/04 15:04:41;;;;;;;7.40;2.75;;;;;;;21.69;75.09;99104.78;4936162;29;20063;-77
2021/06/04 15:07:07;;;;;;;3.97;2.28;;;;;;;22.07;76.67;99094.59;4936535;29;20537;-77
2021/06/04 15:09:32;;;;;;;7.65;2.40;;;;;;;22.35;74.86;99103.53;4936595;29;20142;-77
2021/06/04 15:11:58;;;;;;;5.43;2.33;;;;;;;22.68;73.50;99093.53;4936769;29;20492;-77
2021/06/04 15:14:24;;;;;;;4.30;2.17;;;;;;;22.93;73.26;99105.22;4936575;29;20024;-77
2021/06/04 15:16:49;;;;;;;4.82;2.92;;;;;;;22.89;72.27;99098.44;4935169;29;20359;-77
2021/06/04 15:19:14;;;;;;;7.80;2.80;;;;;;;22.96;71.93;99097.91;4936511;29;20107;-77
2021/06/04 15:21:40;;;;;;;5.15;2.55;;;;;;;22.96;71.05;99097.06;4936562;29;20110;-77
2021/06/04 15:24:08;;;;;;;6.53;2.80;;;;;;;22.70;71.31;99096.91;4936368;29;20497;-77
2021/06/04 15:26:36;;;;;;;8.60;2.75;;;;;;;22.41;72.36;99108.44;4936159;29;20027;-77
2021/06/04 15:29:03;;;;;;;6.53;2.28;;;;;;;22.70;71.78;99088.97;4936342;29;20027;-77
2021/06/04 15:31:29;;;;;;;3.90;2.15;;;;;;;23.06;71.59;99106.13;4936388;29;20062;-77
2021/06/04 15:33:57;;;;;;;5.75;2.70;;;;;;;22.77;71.53;99094.72;4936467;29;20059;-77
2021/06/04 15:36:23;;;;;;;8.50;2.85;;;;;;;22.91;71.03;99099.16;4936211;29;20024;-77
2021/06/04 15:38:48;;;;;;;5.32;2.38;;;;;;;22.91;70.85;99092.09;4936229;29;20039;-77
2021/06/04 15:41:14;;;;;;;5.10;2.25;;;;;;;22.78;71.29;99081.44;4936417;29;20055;-77
2021/06/04 15:43:41;;;;;;;4.72;2.28;;;;;;;23.03;70.79;99090.47;4936246;29;20442;-77
2021/06/04 15:46:06;;;;;;;4.43;2.50;;;;;;;23.30;69.32;99088.66;4935927;29;20024;-74
2021/06/04 15:48:31;;;;;;;3.92;2.22;;;;;;;23.39;70.30;99086.38;4935957;29;20063;-75
2021/06/04 15:50:57;;;;;;;6.30;2.80;;;;;;;23.73;68.77;99085.88;4936017;29;20030;-75
2021/06/04 15:53:24;;;;;;;5.88;2.35;;;;;;;23.71;68.67;99092.22;4936046;29;20140;-75
2021/06/04 15:55:50;;;;;;;3.03;2.30;;;;;;;23.80;68.58;99092.44;4935931;29;20079;-75
2021/06/04 15:58:16;;;;;;;4.07;2.33;;;;;;;23.87;68.24;99086.75;4935724;29;20378;-75
2021/06/04 16:00:42;;;;;;;4.97;2.65;;;;;;;24.17;67.81;99076.69;4935829;29;20027;-75
2021/06/04 16:03:10;;;;;;;3.45;2.50;;;;;;;24.00;68.41;99077.03;4935835;29;20031;-75
2021/06/04 16:05:46;;;;;;;6.55;2.67;;;;;;;23.91;68.04;99067.06;4935797;29;20024;-75
2021/06/04 16:08:12;;;;;;;6.20;2.58;;;;;;;24.29;67.83;99069.72;4935507;29;20028;-75
2021/06/04 16:10:41;;;;;;;5.53;2.13;;;;;;;24.45;67.38;99066.88;4935780;29;20055;-75
2021/06/04 16:13:08;;;;;;;4.13;2.30;;;;;;;24.65;67.49;99068.94;4935816;29;20031;-74